Atlantic Island — C4VM2 — position and weather

sailwx.info

Track history (hours):
 
Tides and Currents Weather Stations Pressure Air Temp Water Temp Dewpoint Dewpoint Depression Visibility Wind Speed Wind Dir Waves Ship Positions

Atlantic Island

Last reported at 2016-Feb-09 02:10 UTC. Time now 2016-Feb-09 13:55 UTC.
Position N 38°02' W 000°06'.

Length 95 m; draft 6 m.

Type: Cargo ship. MMSI: 210754000.

Date/timePositionNaut miles runAvg speedWind from/ knotsBaromVisibWave heightAir tempDewpointWater temp
2016-Feb-09 02:10N 38°02' W 000°06'610.4
2016-Feb-09 01:33N 37°57' W 000°11'1110.7
2016-Feb-09 00:34N 37°48' W 000°18'1010.4
2016-Feb-08 23:33N 37°39' W 000°26'1010.3
2016-Feb-08 22:33N 37°31' W 000°34'1010.4
2016-Feb-08 21:33N 37°25' W 000°44'1110.5
2016-Feb-08 20:33N 37°17' W 000°53'1111.0
2016-Feb-08 19:33N 37°10' W 001°04'1212.0
2016-Feb-08 18:33N 37°02' W 001°15'20110.0
2016-Feb-07 22:33N 35°59' W 005°12'1212.0
2016-Feb-07 21:33N 35°57' W 005°27'1111.1
2016-Feb-07 20:33N 35°55' W 005°40'12110.1
2016-Feb-07 08:33N 36°19' W 008°07'12 9.3
2016-Feb-07 07:15N 36°22' W 008°22'710.1
2016-Feb-07 06:33N 36°24' W 008°30'1010.0
2016-Feb-07 05:33N 36°27' W 008°42'1010.0
2016-Feb-07 04:32N 36°29' W 008°54'10 9.7
2016-Feb-07 03:29N 36°32' W 009°06'9 9.4
2016-Feb-07 02:32N 36°35' W 009°17'14 9.8
2016-Feb-07 01:08N 36°45' W 009°29'6 9.3
2016-Feb-07 00:32N 36°49' W 009°32'9 8.9
2016-Feb-06 23:33N 36°58' W 009°35'8 8.3
2016-Feb-06 22:33N 37°06' W 009°37'9 9.2
2016-Feb-06 21:33N 37°15' W 009°40'10 9.6
2016-Feb-06 20:33N 37°24' W 009°43'10 9.6
2016-Feb-06 19:33N 37°34' W 009°46'9 9.0
2016-Feb-06 18:30N 37°43' W 009°48'1010.3
2016-Feb-06 17:33N 37°52' W 009°51'9 9.0
2016-Feb-06 16:33N 38°01' W 009°53'1110.6
2016-Feb-06 15:32N 38°12' W 009°56'1110.9
2016-Feb-06 14:33N 38°22' W 009°60'1010.0
2016-Feb-06 13:30N 38°32' W 010°02'1010.5
2016-Feb-06 12:30N 38°43' W 010°05'9 9.3
2016-Feb-06 11:32N 38°52' W 010°04'1010.0
2016-Feb-06 10:33N 39°01' W 010°01'1010.2
2016-Feb-06 09:33N 39°11' W 009°57'1110.7
2016-Feb-06 08:33N 39°21' W 009°52'1110.4
2016-Feb-06 07:30N 39°31' W 009°48'1111.3
2016-Feb-06 06:33N 39°41' W 009°44'1110.1
2016-Feb-06 05:30N 39°51' W 009°39'1010.0
2016-Feb-06 04:33N 40°00' W 009°35'1010.5
2016-Feb-06 03:33N 40°10' W 009°31'1010.4
2016-Feb-06 02:33N 40°20' W 009°26'1010.1
2016-Feb-06 01:33N 40°30' W 009°22'10 9.9
2016-Feb-06 00:33N 40°39' W 009°18'9 8.9
2016-Feb-05 23:33N 40°47' W 009°14'1010.2
2016-Feb-05 22:33N 40°57' W 009°10'1010.2
2016-Feb-05 21:33N 41°07' W 009°05'1010.1
2016-Feb-05 20:33N 41°16' W 009°01'1010.1
2016-Feb-05 19:32N 41°26' W 008°57'1010.2
2016-Feb-05 18:33N 41°36' W 008°53'6 5.9
2016-Feb-05 17:33N 41°41' W 008°50'0 0.0
2016-Feb-05 16:30N 41°41' W 008°50'0 0.0
2016-Feb-05 14:14N 41°41' W 008°50'0 0.0
2016-Feb-05 13:26N 41°41' W 008°50'0 0.0
2016-Feb-05 11:32N 41°41' W 008°50'0 0.0
2016-Feb-05 10:32N 41°41' W 008°50'0 0.0
2016-Feb-05 09:32N 41°41' W 008°50'0 0.0
2016-Feb-05 08:32N 41°41' W 008°50'0 0.0
2016-Feb-05 07:29N 41°41' W 008°50'0 0.0
2016-Feb-05 06:20N 41°41' W 008°50'0 0.0
2016-Feb-05 05:32N 41°41' W 008°50'0 0.0
2016-Feb-05 04:32N 41°41' W 008°50'0 0.0
2016-Feb-05 03:32N 41°41' W 008°50'0 0.0
2016-Feb-05 02:32N 41°41' W 008°50'0 0.0
2016-Feb-05 01:33N 41°41' W 008°50'0 0.0
2016-Feb-05 00:20N 41°41' W 008°50'0 0.0
2016-Feb-04 23:32N 41°41' W 008°50'0 0.0
2016-Feb-04 22:32N 41°41' W 008°50'0 0.0
2016-Feb-04 21:32N 41°41' W 008°50'0 0.0
2016-Feb-04 20:32N 41°41' W 008°50'0 0.0
2016-Feb-04 19:32N 41°41' W 008°50'0 0.0
2016-Feb-04 18:14N 41°41' W 008°50'0 0.0
2016-Feb-04 17:32N 41°41' W 008°50'0 0.0
2016-Feb-04 16:32N 41°41' W 008°50'0 0.0
2016-Feb-04 15:32N 41°41' W 008°50'0 0.0
2016-Feb-04 14:32N 41°41' W 008°50'0 0.0
2016-Feb-04 13:32N 41°41' W 008°50'0 0.0
2016-Feb-04 12:08N 41°41' W 008°50'0 0.0
2016-Feb-04 11:32N 41°41' W 008°50'0 0.0
2016-Feb-04 10:32N 41°41' W 008°50'0 0.0
2016-Feb-04 09:32N 41°41' W 008°50'0 0.0
2016-Feb-04 08:32N 41°41' W 008°50'0 0.0
2016-Feb-04 07:32N 41°41' W 008°50'0 0.0
2016-Feb-04 06:32N 41°41' W 008°50'0 0.0
2016-Feb-04 05:32N 41°41' W 008°50'0 0.0
2016-Feb-04 04:32N 41°41' W 008°50'0 0.0
2016-Feb-04 03:32N 41°41' W 008°50'0 0.0
2016-Feb-04 02:32N 41°41' W 008°50'0 0.0
2016-Feb-04 01:32N 41°41' W 008°50'0 0.0
2016-Feb-04 00:32N 41°41' W 008°50'3 2.8
2016-Feb-03 23:33N 41°40' W 008°53'1 1.0
2016-Feb-03 22:32N 41°41' W 008°53'0 0.0
2016-Feb-03 21:32N 41°41' W 008°53'0 0.0
2016-Feb-03 20:32N 41°41' W 008°53'0 0.0
2016-Feb-03 19:32N 41°41' W 008°53'0 0.0
2016-Feb-03 18:32N 41°41' W 008°53'0 0.0
2016-Feb-03 17:32N 41°41' W 008°53'0 0.0
2016-Feb-03 16:32N 41°41' W 008°53'0 0.0
2016-Feb-03 15:32N 41°41' W 008°53'0 0.0
2016-Feb-03 14:32N 41°41' W 008°53'0 0.0
2016-Feb-03 13:32N 41°41' W 008°53'0 0.0
2016-Feb-03 12:32N 41°41' W 008°53'0 0.0
2016-Feb-03 11:32N 41°41' W 008°53'0 0.0
2016-Feb-03 10:32N 41°41' W 008°53'0 0.0
2016-Feb-03 09:32N 41°41' W 008°53'0 0.0
2016-Feb-03 08:32N 41°41' W 008°53'0 0.0
2016-Feb-03 07:32N 41°41' W 008°53'0 0.0
2016-Feb-03 06:32N 41°41' W 008°53'0 0.0
2016-Feb-03 05:32N 41°41' W 008°53'0 0.0
2016-Feb-03 04:32N 41°41' W 008°53'0 0.0
2016-Feb-03 03:32N 41°41' W 008°53'0 0.0
2016-Feb-03 02:32N 41°41' W 008°53'0 0.0
2016-Feb-03 01:32N 41°41' W 008°53'0 0.0
2016-Feb-03 00:32N 41°41' W 008°53'0 0.0
2016-Feb-02 23:29N 41°41' W 008°53'0 0.0
2016-Feb-02 22:32N 41°41' W 008°53'0 0.0
2016-Feb-02 21:32N 41°41' W 008°53'0 0.0
2016-Feb-02 20:32N 41°41' W 008°53'0 0.0
2016-Feb-02 19:32N 41°41' W 008°53'0 0.0
2016-Feb-02 18:29N 41°41' W 008°53'0 0.0
2016-Feb-02 17:23N 41°41' W 008°53'0 0.0
2016-Feb-02 16:32N 41°41' W 008°53'0 0.0
2016-Feb-02 15:32N 41°41' W 008°53'0 0.0
2016-Feb-02 14:32N 41°41' W 008°53'0 0.0
2016-Feb-02 13:32N 41°41' W 008°53'0 0.0
2016-Feb-02 12:32N 41°41' W 008°53'0 0.0
2016-Feb-02 11:17N 41°41' W 008°53'0 0.0
2016-Feb-02 10:32N 41°41' W 008°53'0 0.0
2016-Feb-02 09:32N 41°41' W 008°53'0 0.0
2016-Feb-02 08:32N 41°41' W 008°53'0 0.0
2016-Feb-02 07:32N 41°41' W 008°53'0 0.0
2016-Feb-02 06:32N 41°41' W 008°53'0 0.0
2016-Feb-02 05:34N 41°41' W 008°53'0 0.0
2016-Feb-02 04:32N 41°41' W 008°53'0 0.0
2016-Feb-02 03:32N 41°41' W 008°53'0 0.0
2016-Feb-02 02:32N 41°41' W 008°53'0 0.0
2016-Feb-02 01:32N 41°41' W 008°53'0 0.0
2016-Feb-02 00:32N 41°41' W 008°53'0 0.0
2016-Feb-01 23:05N 41°41' W 008°53'0 0.0
2016-Feb-01 22:32N 41°41' W 008°53'0 0.0
2016-Feb-01 21:32N 41°41' W 008°53'0 0.0
2016-Feb-01 20:29N 41°41' W 008°53'0 0.0
2016-Feb-01 19:32N 41°41' W 008°53'0 0.0
2016-Feb-01 18:32N 41°41' W 008°53'0 0.0
2016-Feb-01 17:32N 41°41' W 008°53'0 0.0
2016-Feb-01 16:32N 41°41' W 008°53'0 0.0
2016-Feb-01 15:32N 41°41' W 008°53'0 0.0
2016-Feb-01 14:23N 41°41' W 008°53'0 0.0
2016-Feb-01 13:32N 41°41' W 008°53'0 0.0
2016-Feb-01 12:32N 41°41' W 008°53'0 0.0
2016-Feb-01 11:09N 41°41' W 008°53'0 0.0
2016-Feb-01 10:32N 41°41' W 008°53'0 0.0
2016-Feb-01 09:32N 41°41' W 008°53'0 0.0
2016-Feb-01 08:32N 41°41' W 008°53'0 0.0
2016-Feb-01 07:32N 41°41' W 008°53'0 0.0
2016-Feb-01 06:32N 41°41' W 008°53'0 0.0
2016-Feb-01 05:32N 41°41' W 008°53'0 0.0
2016-Feb-01 04:32N 41°41' W 008°53'0 0.0
2016-Feb-01 03:32N 41°41' W 008°53'0 0.0
2016-Feb-01 02:32N 41°41' W 008°53'0 0.0
2016-Feb-01 01:32N 41°41' W 008°53'0 0.1
2016-Feb-01 00:29N 41°41' W 008°53'8 8.2
2016-Jan-31 23:32N 41°47' W 008°60'1212.1
2016-Jan-31 22:32N 41°56' W 009°10'165 5.0
2016-Jan-30 13:16N 43°43' W 006°19'7 7.8
2016-Jan-30 12:21N 43°42' W 006°09'7 7.5
2016-Jan-30 11:26N 43°42' W 005°60'7 7.9
2016-Jan-30 10:31N 43°41' W 005°50'8 8.8
2016-Jan-30 09:33N 43°40' W 005°38'12 9.0
2016-Jan-30 08:15N 43°39' W 005°22'9 9.9
2016-Jan-30 07:20N 43°39' W 005°10'  
Track history (hours):
 
Tides and Currents Weather Stations Pressure Air Temp Water Temp Dewpoint Dewpoint Depression Visibility Wind Speed Wind Dir Waves Ship Positions

Atlantic Island

Last reported at 2016-Feb-09 02:10 UTC. Time now 2016-Feb-09 13:55 UTC.
Position N 38°02' W 000°06'.

Length 95 m; draft 6 m.

Type: Cargo ship. MMSI: 210754000.

Date/timePositionNaut miles runAvg speedWind from/ knotsBaromVisibWave heightAir tempDewpointWater temp
2016-Feb-09 02:10N 38°02' W 000°06'610.4
2016-Feb-09 01:33N 37°57' W 000°11'1110.7
2016-Feb-09 00:34N 37°48' W 000°18'1010.4
2016-Feb-08 23:33N 37°39' W 000°26'1010.3
2016-Feb-08 22:33N 37°31' W 000°34'1010.4
2016-Feb-08 21:33N 37°25' W 000°44'1110.5
2016-Feb-08 20:33N 37°17' W 000°53'1111.0
2016-Feb-08 19:33N 37°10' W 001°04'1212.0
2016-Feb-08 18:33N 37°02' W 001°15'20110.0
2016-Feb-07 22:33N 35°59' W 005°12'1212.0
2016-Feb-07 21:33N 35°57' W 005°27'1111.1
2016-Feb-07 20:33N 35°55' W 005°40'12110.1
2016-Feb-07 08:33N 36°19' W 008°07'12 9.3
2016-Feb-07 07:15N 36°22' W 008°22'710.1
2016-Feb-07 06:33N 36°24' W 008°30'1010.0
2016-Feb-07 05:33N 36°27' W 008°42'1010.0
2016-Feb-07 04:32N 36°29' W 008°54'10 9.7
2016-Feb-07 03:29N 36°32' W 009°06'9 9.4
2016-Feb-07 02:32N 36°35' W 009°17'14 9.8
2016-Feb-07 01:08N 36°45' W 009°29'6 9.3
2016-Feb-07 00:32N 36°49' W 009°32'9 8.9
2016-Feb-06 23:33N 36°58' W 009°35'8 8.3
2016-Feb-06 22:33N 37°06' W 009°37'9 9.2
2016-Feb-06 21:33N 37°15' W 009°40'10 9.6
2016-Feb-06 20:33N 37°24' W 009°43'10 9.6
2016-Feb-06 19:33N 37°34' W 009°46'9 9.0
2016-Feb-06 18:30N 37°43' W 009°48'1010.3
2016-Feb-06 17:33N 37°52' W 009°51'9 9.0
2016-Feb-06 16:33N 38°01' W 009°53'1110.6
2016-Feb-06 15:32N 38°12' W 009°56'1110.9
2016-Feb-06 14:33N 38°22' W 009°60'1010.0
2016-Feb-06 13:30N 38°32' W 010°02'1010.5
2016-Feb-06 12:30N 38°43' W 010°05'9 9.3
2016-Feb-06 11:32N 38°52' W 010°04'1010.0
2016-Feb-06 10:33N 39°01' W 010°01'1010.2
2016-Feb-06 09:33N 39°11' W 009°57'1110.7
2016-Feb-06 08:33N 39°21' W 009°52'1110.4
2016-Feb-06 07:30N 39°31' W 009°48'1111.3
2016-Feb-06 06:33N 39°41' W 009°44'1110.1
2016-Feb-06 05:30N 39°51' W 009°39'1010.0
2016-Feb-06 04:33N 40°00' W 009°35'1010.5
2016-Feb-06 03:33N 40°10' W 009°31'1010.4
2016-Feb-06 02:33N 40°20' W 009°26'1010.1
2016-Feb-06 01:33N 40°30' W 009°22'10 9.9
2016-Feb-06 00:33N 40°39' W 009°18'9 8.9
2016-Feb-05 23:33N 40°47' W 009°14'1010.2
2016-Feb-05 22:33N 40°57' W 009°10'1010.2
2016-Feb-05 21:33N 41°07' W 009°05'1010.1
2016-Feb-05 20:33N 41°16' W 009°01'1010.1
2016-Feb-05 19:32N 41°26' W 008°57'1010.2
2016-Feb-05 18:33N 41°36' W 008°53'6 5.9
2016-Feb-05 17:33N 41°41' W 008°50'0 0.0
2016-Feb-05 16:30N 41°41' W 008°50'0 0.0
2016-Feb-05 14:14N 41°41' W 008°50'0 0.0
2016-Feb-05 13:26N 41°41' W 008°50'0 0.0
2016-Feb-05 11:32N 41°41' W 008°50'0 0.0
2016-Feb-05 10:32N 41°41' W 008°50'0 0.0
2016-Feb-05 09:32N 41°41' W 008°50'0 0.0
2016-Feb-05 08:32N 41°41' W 008°50'0 0.0
2016-Feb-05 07:29N 41°41' W 008°50'0 0.0
2016-Feb-05 06:20N 41°41' W 008°50'0 0.0
2016-Feb-05 05:32N 41°41' W 008°50'0 0.0
2016-Feb-05 04:32N 41°41' W 008°50'0 0.0
2016-Feb-05 03:32N 41°41' W 008°50'0 0.0
2016-Feb-05 02:32N 41°41' W 008°50'0 0.0
2016-Feb-05 01:33N 41°41' W 008°50'0 0.0
2016-Feb-05 00:20N 41°41' W 008°50'0 0.0
2016-Feb-04 23:32N 41°41' W 008°50'0 0.0
2016-Feb-04 22:32N 41°41' W 008°50'0 0.0
2016-Feb-04 21:32N 41°41' W 008°50'0 0.0
2016-Feb-04 20:32N 41°41' W 008°50'0 0.0
2016-Feb-04 19:32N 41°41' W 008°50'0 0.0
2016-Feb-04 18:14N 41°41' W 008°50'0 0.0
2016-Feb-04 17:32N 41°41' W 008°50'0 0.0
2016-Feb-04 16:32N 41°41' W 008°50'0 0.0
2016-Feb-04 15:32N 41°41' W 008°50'0 0.0
2016-Feb-04 14:32N 41°41' W 008°50'0 0.0
2016-Feb-04 13:32N 41°41' W 008°50'0 0.0
2016-Feb-04 12:08N 41°41' W 008°50'0 0.0
2016-Feb-04 11:32N 41°41' W 008°50'0 0.0
2016-Feb-04 10:32N 41°41' W 008°50'0 0.0
2016-Feb-04 09:32N 41°41' W 008°50'0 0.0
2016-Feb-04 08:32N 41°41' W 008°50'0 0.0
2016-Feb-04 07:32N 41°41' W 008°50'0 0.0
2016-Feb-04 06:32N 41°41' W 008°50'0 0.0
2016-Feb-04 05:32N 41°41' W 008°50'0 0.0
2016-Feb-04 04:32N 41°41' W 008°50'0 0.0
2016-Feb-04 03:32N 41°41' W 008°50'0 0.0
2016-Feb-04 02:32N 41°41' W 008°50'0 0.0
2016-Feb-04 01:32N 41°41' W 008°50'0 0.0
2016-Feb-04 00:32N 41°41' W 008°50'3 2.8
2016-Feb-03 23:33N 41°40' W 008°53'1 1.0
2016-Feb-03 22:32N 41°41' W 008°53'0 0.0
2016-Feb-03 21:32N 41°41' W 008°53'0 0.0
2016-Feb-03 20:32N 41°41' W 008°53'0 0.0
2016-Feb-03 19:32N 41°41' W 008°53'0 0.0
2016-Feb-03 18:32N 41°41' W 008°53'0 0.0
2016-Feb-03 17:32N 41°41' W 008°53'0 0.0
2016-Feb-03 16:32N 41°41' W 008°53'0 0.0
2016-Feb-03 15:32N 41°41' W 008°53'0 0.0
2016-Feb-03 14:32N 41°41' W 008°53'0 0.0
2016-Feb-03 13:32N 41°41' W 008°53'0 0.0
2016-Feb-03 12:32N 41°41' W 008°53'0 0.0
2016-Feb-03 11:32N 41°41' W 008°53'0 0.0
2016-Feb-03 10:32N 41°41' W 008°53'0 0.0
2016-Feb-03 09:32N 41°41' W 008°53'0 0.0
2016-Feb-03 08:32N 41°41' W 008°53'0 0.0
2016-Feb-03 07:32N 41°41' W 008°53'0 0.0
2016-Feb-03 06:32N 41°41' W 008°53'0 0.0
2016-Feb-03 05:32N 41°41' W 008°53'0 0.0
2016-Feb-03 04:32N 41°41' W 008°53'0 0.0
2016-Feb-03 03:32N 41°41' W 008°53'0 0.0
2016-Feb-03 02:32N 41°41' W 008°53'0 0.0
2016-Feb-03 01:32N 41°41' W 008°53'0 0.0
2016-Feb-03 00:32N 41°41' W 008°53'0 0.0
2016-Feb-02 23:29N 41°41' W 008°53'0 0.0
2016-Feb-02 22:32N 41°41' W 008°53'0 0.0
2016-Feb-02 21:32N 41°41' W 008°53'0 0.0
2016-Feb-02 20:32N 41°41' W 008°53'0 0.0
2016-Feb-02 19:32N 41°41' W 008°53'0 0.0
2016-Feb-02 18:29N 41°41' W 008°53'0 0.0
2016-Feb-02 17:23N 41°41' W 008°53'0 0.0
2016-Feb-02 16:32N 41°41' W 008°53'0 0.0
2016-Feb-02 15:32N 41°41' W 008°53'0 0.0
2016-Feb-02 14:32N 41°41' W 008°53'0 0.0
2016-Feb-02 13:32N 41°41' W 008°53'0 0.0
2016-Feb-02 12:32N 41°41' W 008°53'0 0.0
2016-Feb-02 11:17N 41°41' W 008°53'0 0.0
2016-Feb-02 10:32N 41°41' W 008°53'0 0.0
2016-Feb-02 09:32N 41°41' W 008°53'0 0.0
2016-Feb-02 08:32N 41°41' W 008°53'0 0.0
2016-Feb-02 07:32N 41°41' W 008°53'0 0.0
2016-Feb-02 06:32N 41°41' W 008°53'0 0.0
2016-Feb-02 05:34N 41°41' W 008°53'0 0.0
2016-Feb-02 04:32N 41°41' W 008°53'0 0.0
2016-Feb-02 03:32N 41°41' W 008°53'0 0.0
2016-Feb-02 02:32N 41°41' W 008°53'0 0.0
2016-Feb-02 01:32N 41°41' W 008°53'0 0.0
2016-Feb-02 00:32N 41°41' W 008°53'0 0.0
2016-Feb-01 23:05N 41°41' W 008°53'0 0.0
2016-Feb-01 22:32N 41°41' W 008°53'0 0.0
2016-Feb-01 21:32N 41°41' W 008°53'0 0.0
2016-Feb-01 20:29N 41°41' W 008°53'0 0.0
2016-Feb-01 19:32N 41°41' W 008°53'0 0.0
2016-Feb-01 18:32N 41°41' W 008°53'0 0.0
2016-Feb-01 17:32N 41°41' W 008°53'0 0.0
2016-Feb-01 16:32N 41°41' W 008°53'0 0.0
2016-Feb-01 15:32N 41°41' W 008°53'0 0.0
2016-Feb-01 14:23N 41°41' W 008°53'0 0.0
2016-Feb-01 13:32N 41°41' W 008°53'0 0.0
2016-Feb-01 12:32N 41°41' W 008°53'0 0.0
2016-Feb-01 11:09N 41°41' W 008°53'0 0.0
2016-Feb-01 10:32N 41°41' W 008°53'0 0.0
2016-Feb-01 09:32N 41°41' W 008°53'0 0.0
2016-Feb-01 08:32N 41°41' W 008°53'0 0.0
2016-Feb-01 07:32N 41°41' W 008°53'0 0.0
2016-Feb-01 06:32N 41°41' W 008°53'0 0.0
2016-Feb-01 05:32N 41°41' W 008°53'0 0.0
2016-Feb-01 04:32N 41°41' W 008°53'0 0.0
2016-Feb-01 03:32N 41°41' W 008°53'0 0.0
2016-Feb-01 02:32N 41°41' W 008°53'0 0.0
2016-Feb-01 01:32N 41°41' W 008°53'0 0.1
2016-Feb-01 00:29N 41°41' W 008°53'8 8.2
2016-Jan-31 23:32N 41°47' W 008°60'1212.1
2016-Jan-31 22:32N 41°56' W 009°10'165 5.0
2016-Jan-30 13:16N 43°43' W 006°19'7 7.8
2016-Jan-30 12:21N 43°42' W 006°09'7 7.5
2016-Jan-30 11:26N 43°42' W 005°60'7 7.9
2016-Jan-30 10:31N 43°41' W 005°50'8 8.8
2016-Jan-30 09:33N 43°40' W 005°38'12 9.0
2016-Jan-30 08:15N 43°39' W 005°22'9 9.9
2016-Jan-30 07:20N 43°39' W 005°10'  

Dump ship's entire track history